Time;durP1;ratioP1;P1;durP2;ratioP2;P2;SDS_P1;SDS_P2;PMS_P1;PMS_P2;Temp;Humidity;BMP_temperature;BMP_pressure;BME280_temperature;BME280_humidity;BME280_pressure;Samples;Min_cycle;Max_cycle;Signal;HPM_P1;HPM_P2
2022/08/26 00:04:05;;;;;;;1.60;0.45;;;27.30;62.80;;;;;;10433219;28;20725;-36
2022/08/26 00:09:07;;;;;;;2.08;0.50;;;28.30;60.80;;;;;;10435699;28;20469;-36
2022/08/26 00:14:09;;;;;;;3.05;0.50;;;28.50;59.80;;;;;;10440723;28;20077;-36
2022/08/26 00:19:12;;;;;;;2.10;0.60;;;28.20;60.10;;;;;;10450929;28;20139;-35
2022/08/26 00:24:14;;;;;;;3.15;0.57;;;28.40;59.90;;;;;;10439014;28;20057;-38
2022/08/26 00:29:16;;;;;;;4.53;0.73;;;28.20;60.20;;;;;;10435750;28;20048;-37
2022/08/26 00:34:20;;;;;;;4.13;0.47;;;27.80;60.20;;;;;;10441370;28;20087;-36
2022/08/26 00:39:21;;;;;;;1.52;0.43;;;27.20;63.30;;;;;;10457010;28;20080;-36
2022/08/26 00:44:24;;;;;;;8.48;1.83;;;27.20;63.60;;;;;;10434708;28;20072;-38
2022/08/26 00:49:35;;;;;;;4.80;0.65;;;28.30;59.50;;;;;;10447728;28;20131;-35
2022/08/26 00:54:44;;;;;;;1.75;0.40;;;27.60;61.20;;;;;;10445262;28;20568;-35
2022/08/26 00:59:49;;;;;;;2.88;0.30;;;28.00;60.80;;;;;;10454599;28;20041;-35
2022/08/26 01:04:59;;;;;;;2.17;0.55;;;28.20;60.10;;;;;;10433543;28;20413;-35
2022/08/26 01:10:06;;;;;;;4.75;0.80;;;28.40;59.60;;;;;;10448796;28;20076;-36
2022/08/26 01:15:09;;;;;;;0.98;0.40;;;28.30;59.10;;;;;;10458302;28;20134;-35
2022/08/26 01:20:23;;;;;;;3.42;0.63;;;28.70;58.60;;;;;;10434850;28;20040;-36
2022/08/26 01:25:30;;;;;;;2.65;0.50;;;28.10;59.90;;;;;;10444724;28;20057;-34
2022/08/26 01:30:34;;;;;;;3.35;0.50;;;27.80;61.00;;;;;;10439620;28;20081;-35
2022/08/26 01:35:37;;;;;;;1.05;0.47;;;28.20;59.00;;;;;;10458177;28;20155;-34
2022/08/26 01:40:42;;;;;;;2.60;0.60;;;28.10;60.10;;;;;;10444700;28;20053;-36
2022/08/26 01:45:46;;;;;;;2.55;0.50;;;27.20;60.80;;;;;;10454996;28;20107;-36
2022/08/26 01:50:49;;;;;;;2.30;0.65;;;27.30;60.80;;;;;;10447458;28;20048;-36
2022/08/26 01:55:56;;;;;;;2.30;0.55;;;26.90;62.40;;;;;;10436065;28;20422;-35
2022/08/26 02:00:59;;;;;;;1.67;0.40;;;27.10;61.80;;;;;;10449430;28;20060;-36
2022/08/26 02:06:04;;;;;;;2.55;0.50;;;27.70;60.60;;;;;;10456315;28;20103;-35
2022/08/26 02:11:07;;;;;;;1.85;0.57;;;26.80;61.30;;;;;;10446567;28;20142;-35
2022/08/26 02:16:11;;;;;;;2.38;0.50;;;28.20;59.20;;;;;;10437542;28;20064;-35
2022/08/26 02:21:13;;;;;;;1.92;0.43;;;28.30;58.70;;;;;;10446027;28;20441;-35
2022/08/26 02:26:19;;;;;;;1.98;0.40;;;27.70;59.60;;;;;;10429268;28;20076;-35
2022/08/26 02:31:21;;;;;;;1.13;0.60;;;27.90;59.30;;;;;;10446234;28;20088;-35
2022/08/26 02:36:25;;;;;;;4.30;0.40;;;28.00;58.70;;;;;;10445663;28;20041;-36
2022/08/26 02:41:28;;;;;;;3.40;0.40;;;27.90;59.30;;;;;;10451031;28;20076;-33
2022/08/26 02:46:31;;;;;;;1.80;0.50;;;27.50;59.60;;;;;;10445537;28;20045;-34
2022/08/26 02:51:33;;;;;;;2.00;0.40;;;26.90;61.20;;;;;;10437133;28;20094;-36
2022/08/26 02:56:36;;;;;;;2.50;0.88;;;28.20;58.60;;;;;;10438116;28;20144;-36
2022/08/26 03:01:39;;;;;;;1.90;0.40;;;28.30;58.30;;;;;;10442427;28;20154;-35
2022/08/26 03:06:42;;;;;;;1.08;0.30;;;27.70;59.60;;;;;;10449525;28;20045;-37
2022/08/26 03:11:46;;;;;;;2.85;0.50;;;28.30;57.90;;;;;;10447265;28;20145;-35
2022/08/26 03:16:49;;;;;;;2.58;0.50;;;27.20;60.50;;;;;;10444147;28;20080;-36
2022/08/26 03:21:52;;;;;;;2.13;0.35;;;28.10;58.10;;;;;;10435225;28;20059;-35
2022/08/26 03:26:56;;;;;;;4.95;0.60;;;28.10;58.20;;;;;;10441849;28;20462;-36
2022/08/26 03:31:59;;;;;;;1.38;0.40;;;27.30;59.00;;;;;;10438320;28;20049;-35
2022/08/26 03:37:01;;;;;;;0.95;0.30;;;27.80;59.40;;;;;;10457252;28;20048;-36
2022/08/26 03:42:05;;;;;;;3.03;0.77;;;27.60;59.50;;;;;;10458244;28;20075;-37
2022/08/26 03:47:07;;;;;;;3.25;0.63;;;27.00;60.10;;;;;;10448526;28;20076;-37
2022/08/26 03:52:09;;;;;;;2.78;0.80;;;26.70;61.50;;;;;;10443267;28;20485;-36
2022/08/26 03:57:13;;;;;;;2.72;0.40;;;27.80;59.50;;;;;;10452912;28;20473;-34
2022/08/26 04:02:15;;;;;;;2.45;0.60;;;27.50;60.20;;;;;;10456570;28;20048;-34
2022/08/26 04:07:17;;;;;;;2.65;0.40;;;27.30;60.60;;;;;;10446903;28;20431;-36
2022/08/26 04:12:20;;;;;;;2.90;0.80;;;26.70;62.60;;;;;;10456861;28;20135;-36
2022/08/26 04:17:24;;;;;;;3.22;0.50;;;27.40;59.90;;;;;;10433692;28;20449;-36
2022/08/26 04:22:26;;;;;;;1.48;0.32;;;27.20;60.90;;;;;;10442178;28;20055;-38
2022/08/26 04:27:29;;;;;;;3.38;0.90;;;27.70;59.10;;;;;;10435272;28;20126;-34
2022/08/26 04:32:31;;;;;;;1.08;0.40;;;27.30;60.30;;;;;;10440501;28;20049;-35
2022/08/26 04:37:33;;;;;;;4.80;0.52;;;28.00;58.80;;;;;;10441005;28;20201;-35
2022/08/26 04:42:36;;;;;;;3.90;0.70;;;27.70;59.20;;;;;;10429427;28;20084;-36
2022/08/26 04:47:38;;;;;;;1.67;0.45;;;28.10;58.30;;;;;;10429893;28;20083;-43
2022/08/26 04:52:41;;;;;;;4.47;0.60;;;27.60;59.40;;;;;;10427093;28;20037;-35
2022/08/26 04:57:44;;;;;;;2.90;0.50;;;27.60;60.20;;;;;;10438781;28;20052;-36
2022/08/26 05:02:47;;;;;;;1.65;0.40;;;28.00;59.00;;;;;;10434792;28;20081;-36
2022/08/26 05:07:48;;;;;;;3.95;0.70;;;28.20;58.40;;;;;;10433478;28;20167;-35
2022/08/26 05:12:51;;;;;;;5.72;0.70;;;27.40;59.30;;;;;;10443784;28;20107;-36
2022/08/26 05:17:54;;;;;;;5.05;0.70;;;26.70;61.10;;;;;;10456392;28;20080;-36
2022/08/26 05:22:56;;;;;;;5.10;0.52;;;26.50;61.30;;;;;;10437245;28;20409;-36
2022/08/26 05:27:59;;;;;;;7.22;0.77;;;27.90;59.10;;;;;;10456840;28;20136;-35
2022/08/26 05:33:02;;;;;;;3.58;0.40;;;26.80;60.90;;;;;;10451235;28;20072;-36
2022/08/26 05:38:07;;;;;;;7.50;1.50;;;28.00;58.40;;;;;;10442381;28;20072;-36
2022/08/26 05:43:12;;;;;;;3.15;0.57;;;28.10;58.10;;;;;;10442163;28;20064;-36
2022/08/26 05:48:14;;;;;;;2.47;0.28;;;28.30;57.80;;;;;;10397830;28;20055;-36
2022/08/26 05:53:19;;;;;;;1.30;0.30;;;27.50;59.40;;;;;;10403110;28;20069;-34
2022/08/26 05:58:23;;;;;;;2.63;0.40;;;28.00;57.70;;;;;;10407705;28;20083;-36
2022/08/26 06:03:24;;;;;;;1.83;0.47;;;27.60;59.40;;;;;;10411337;28;20080;-36
2022/08/26 06:08:26;;;;;;;1.70;0.45;;;27.40;59.50;;;;;;10409330;28;20084;-36
2022/08/26 06:13:31;;;;;;;2.53;0.50;;;27.30;60.00;;;;;;10403750;28;20080;-36
2022/08/26 06:18:36;;;;;;;3.60;0.65;;;26.90;60.80;;;;;;10396521;28;20102;-35
2022/08/26 06:29:00;;;;;;;2.58;0.40;;;27.40;57.70;;;;;;10408645;28;20053;-35
2022/08/26 06:34:02;;;;;;;2.15;0.45;;;26.90;60.90;;;;;;10387794;28;20139;-37
2022/08/26 06:39:08;;;;;;;2.78;0.40;;;27.60;58.70;;;;;;10402029;28;20041;-35
2022/08/26 06:44:12;;;;;;;1.67;0.70;;;26.60;60.90;;;;;;10404114;28;20548;-32
2022/08/26 06:49:14;;;;;;;3.95;0.40;;;28.00;57.80;;;;;;10445446;28;20072;-37
2022/08/26 06:54:16;;;;;;;2.90;0.30;;;27.90;57.70;;;;;;10458031;28;20073;-34
2022/08/26 06:59:20;;;;;;;2.65;0.50;;;27.70;58.10;;;;;;10450838;28;20139;-35
2022/08/26 07:04:23;;;;;;;7.00;1.35;;;27.90;58.00;;;;;;10448737;28;20056;-37
2022/08/26 07:09:28;;;;;;;2.53;1.00;;;27.50;59.00;;;;;;10442871;28;20063;-34
2022/08/26 07:14:31;;;;;;;3.17;0.70;;;26.90;59.90;;;;;;10441625;28;20072;-34
2022/08/26 07:19:33;;;;;;;2.92;0.50;;;27.40;57.70;;;;;;10438424;28;20056;-36
2022/08/26 07:24:37;;;;;;;2.92;0.40;;;27.70;58.20;;;;;;10433908;28;20045;-36
2022/08/26 07:29:42;;;;;;;1.65;0.57;;;26.40;60.10;;;;;;10441457;28;20044;-38
2022/08/26 07:34:44;;;;;;;0.73;0.20;;;28.00;57.30;;;;;;10450143;28;20057;-37
2022/08/26 07:39:47;;;;;;;1.15;0.40;;;27.90;57.60;;;;;;10430509;28;20045;-35
2022/08/26 07:44:50;;;;;;;2.85;0.60;;;28.10;56.80;;;;;;10442981;28;20077;-34
2022/08/26 07:49:53;;;;;;;0.85;0.30;;;28.10;56.80;;;;;;10441307;28;20084;-36
2022/08/26 07:54:56;;;;;;;1.88;0.43;;;28.20;56.70;;;;;;10439629;28;20045;-33
2022/08/26 08:00:00;;;;;;;1.92;0.25;;;27.90;57.30;;;;;;10445861;28;20041;-37
2022/08/26 08:05:02;;;;;;;0.40;0.13;;;28.00;56.90;;;;;;10433510;28;20040;-36
2022/08/26 08:10:06;;;;;;;1.92;0.43;;;27.50;57.80;;;;;;10444984;28;20049;-36
2022/08/26 08:15:12;;;;;;;2.67;0.30;;;27.40;57.90;;;;;;10445785;28;20044;-39
2022/08/26 08:20:14;;;;;;;2.17;0.35;;;26.60;56.70;;;;;;10452391;28;20037;-36
2022/08/26 08:25:16;;;;;;;0.70;0.30;;;27.20;58.50;;;;;;10461417;28;20102;-38
2022/08/26 08:30:21;;;;;;;1.00;0.50;;;27.80;57.30;;;;;;10457981;28;20088;-38
2022/08/26 08:35:25;;;;;;;1.00;0.38;;;27.70;57.30;;;;;;10440565;28;20048;-38
2022/08/26 08:40:27;;;;;;;3.72;0.80;;;27.60;57.50;;;;;;10450736;28;20049;-37
2022/08/26 08:45:33;;;;;;;1.77;0.43;;;27.30;58.50;;;;;;10435650;28;20081;-38
2022/08/26 08:50:42;;;;;;;2.13;0.57;;;27.10;58.50;;;;;;10409981;28;20088;-36
2022/08/26 08:55:50;;;;;;;1.90;0.57;;;27.40;58.00;;;;;;10404753;28;20619;-36
2022/08/26 09:01:00;;;;;;;0.80;0.30;;;27.30;57.90;;;;;;10387938;28;20449;-36
2022/08/26 09:06:15;;;;;;;1.75;0.55;;;27.10;58.90;;;;;;10414459;28;20049;-33
2022/08/26 09:11:19;;;;;;;3.55;0.70;;;27.30;58.10;;;;;;10421623;28;20060;-37
2022/08/26 09:16:32;;;;;;;0.77;0.30;;;26.20;60.40;;;;;;10404387;28;20215;-40
2022/08/26 09:21:34;;;;;;;1.92;0.70;;;26.80;59.40;;;;;;10394217;28;20050;-37
2022/08/26 09:26:46;;;;;;;1.85;0.80;;;26.80;58.40;;;;;;10391814;28;20053;-37
2022/08/26 09:31:50;;;;;;;4.28;0.52;;;26.40;58.30;;;;;;10386964;28;20081;-36
2022/08/26 09:36:53;;;;;;;3.08;0.68;;;25.70;59.90;;;;;;10385076;28;20718;-36
2022/08/26 09:42:11;;;;;;;3.20;0.65;;;27.00;58.70;;;;;;10385541;28;20144;-37
2022/08/26 09:47:14;;;;;;;2.35;0.73;;;27.00;58.30;;;;;;10387412;28;20053;-37
2022/08/26 09:52:22;;;;;;;5.25;0.88;;;27.70;56.70;;;;;;10380092;28;20107;-38
2022/08/26 09:57:27;;;;;;;9.40;1.10;;;27.20;56.20;;;;;;10395282;28;20045;-35
2022/08/26 10:02:44;;;;;;;1.75;0.50;;;26.10;57.70;;;;;;10411895;28;20065;-34
2022/08/26 10:07:49;;;;;;;2.72;0.98;;;27.60;57.10;;;;;;10407103;28;20057;-36
2022/08/26 10:12:59;;;;;;;3.72;0.70;;;27.60;56.50;;;;;;10406005;28;20096;-36
2022/08/26 10:18:08;;;;;;;2.60;0.70;;;26.10;60.10;;;;;;10407822;28;20121;-36
2022/08/26 10:23:16;;;;;;;2.95;0.65;;;27.30;57.60;;;;;;10392400;28;20111;-35
2022/08/26 10:28:25;;;;;;;1.63;0.70;;;26.10;59.50;;;;;;10384079;28;20134;-37
2022/08/26 10:33:28;;;;;;;2.70;0.55;;;26.10;60.60;;;;;;10390675;28;20054;-36
2022/08/26 10:38:34;;;;;;;2.25;0.75;;;26.50;59.70;;;;;;10398764;28;20061;-36
2022/08/26 10:43:41;;;;;;;2.15;0.70;;;26.80;57.50;;;;;;10401088;28;20049;-36
2022/08/26 10:48:48;;;;;;;3.55;0.80;;;27.30;57.50;;;;;;10395922;28;20049;-35
2022/08/26 10:53:56;;;;;;;2.38;0.75;;;27.80;56.10;;;;;;10381467;28;20055;-36
2022/08/26 10:59:06;;;;;;;2.55;0.90;;;27.30;56.60;;;;;;10402661;28;20085;-35
2022/08/26 11:04:19;;;;;;;4.40;0.98;;;27.60;56.20;;;;;;10395799;28;20053;-35
2022/08/26 11:09:43;;;;;;;4.55;0.88;;;27.10;56.70;;;;;;10404749;28;20049;-36
2022/08/26 11:14:45;;;;;;;3.45;0.75;;;27.70;56.30;;;;;;10410427;28;20046;-35
2022/08/26 11:20:03;;;;;;;1.27;0.80;;;27.60;56.50;;;;;;10394863;28;20041;-36
2022/08/26 11:25:08;;;;;;;2.58;0.90;;;27.30;56.30;;;;;;10384423;28;20049;-36
2022/08/26 11:30:38;;;;;;;2.42;0.90;;;27.80;56.20;;;;;;10388185;28;20633;-36
2022/08/26 11:35:48;;;;;;;2.95;1.15;;;27.40;56.90;;;;;;10408530;28;20049;-35
2022/08/26 11:41:06;;;;;;;3.40;1.27;;;28.00;55.40;;;;;;10380181;28;20052;-36
2022/08/26 11:46:11;;;;;;;3.88;1.60;;;27.90;55.90;;;;;;10397140;28;20142;-36
2022/08/26 11:51:22;;;;;;;6.55;1.48;;;27.50;57.20;;;;;;10405461;28;20140;-35
2022/08/26 11:56:31;;;;;;;3.40;1.17;;;27.90;56.00;;;;;;10405934;28;20467;-36
2022/08/26 12:01:37;;;;;;;7.60;1.40;;;26.50;57.30;;;;;;10390169;28;20053;-35
2022/08/26 12:06:45;;;;;;;1.25;0.80;;;27.00;58.10;;;;;;10397617;28;20133;-36
2022/08/26 12:11:47;;;;;;;2.45;0.77;;;26.60;57.50;;;;;;10398630;28;20096;-35
2022/08/26 12:16:52;;;;;;;3.13;0.90;;;26.20;58.80;;;;;;10397094;28;20073;-37
2022/08/26 12:22:00;;;;;;;4.38;0.80;;;27.50;57.80;;;;;;10381653;28;20046;-35
2022/08/26 12:27:16;;;;;;;3.03;1.02;;;26.70;56.10;;;;;;10393054;28;20112;-36
2022/08/26 12:32:24;;;;;;;2.90;0.57;;;26.20;58.10;;;;;;10386591;28;20057;-35
2022/08/26 12:37:27;;;;;;;3.08;0.82;;;27.10;57.30;;;;;;10378438;28;20044;-35
2022/08/26 12:42:40;;;;;;;1.65;0.75;;;27.30;56.90;;;;;;10376964;28;20073;-37
2022/08/26 12:47:45;;;;;;;2.08;0.70;;;28.00;55.00;;;;;;10388712;28;20053;-36
2022/08/26 12:52:59;;;;;;;1.67;0.63;;;28.00;54.90;;;;;;10397258;28;20076;-35
2022/08/26 12:58:21;;;;;;;3.08;0.95;;;28.00;55.00;;;;;;10400346;28;20087;-34
2022/08/26 13:03:43;;;;;;;3.70;0.88;;;27.10;54.30;;;;;;10404243;28;20351;-35
2022/08/26 13:08:47;;;;;;;3.38;0.70;;;26.40;55.30;;;;;;10393871;28;20049;-34
2022/08/26 13:13:51;;;;;;;7.07;0.77;;;28.10;54.80;;;;;;10395454;28;20053;-35
2022/08/26 13:18:56;;;;;;;3.33;0.60;;;27.50;55.50;;;;;;10387284;28;20048;-33
2022/08/26 13:24:04;;;;;;;2.72;0.50;;;27.20;54.20;;;;;;10372589;28;20194;-35
2022/08/26 13:29:06;;;;;;;1.88;0.70;;;27.80;54.10;;;;;;10373232;28;20557;-33
2022/08/26 13:34:12;;;;;;;4.32;0.70;;;27.10;54.40;;;;;;10374397;28;20050;-33
2022/08/26 13:39:14;;;;;;;3.10;0.65;;;27.70;54.20;;;;;;10376460;28;20049;-35
2022/08/26 13:44:16;;;;;;;2.75;0.68;;;27.80;54.70;;;;;;10390216;28;20438;-34
2022/08/26 13:49:19;;;;;;;1.67;0.90;;;28.40;53.40;;;;;;10422196;28;20072;-35
2022/08/26 13:54:21;;;;;;;3.88;0.75;;;28.50;53.20;;;;;;10420086;28;20041;-35
2022/08/26 13:59:23;;;;;;;1.95;0.75;;;27.00;56.60;;;;;;10430539;28;20068;-34
2022/08/26 14:04:26;;;;;;;2.03;0.70;;;27.10;56.30;;;;;;10419873;28;20564;-34
2022/08/26 14:09:28;;;;;;;2.72;0.73;;;27.80;50.90;;;;;;10418044;28;20048;-36
2022/08/26 14:14:30;;;;;;;4.80;1.02;;;28.00;54.50;;;;;;10422407;28;20120;-34
2022/08/26 14:19:33;;;;;;;5.70;1.08;;;27.20;55.10;;;;;;10431602;28;20087;-34
2022/08/26 14:24:35;;;;;;;6.88;1.40;;;27.90;54.20;;;;;;10420683;28;20659;-34
2022/08/26 14:29:37;;;;;;;1.40;0.60;;;27.60;54.00;;;;;;10425417;28;20125;-34
2022/08/26 14:34:41;;;;;;;5.47;1.17;;;28.20;53.60;;;;;;10429729;28;20103;-34
2022/08/26 14:39:43;;;;;;;3.70;0.70;;;28.00;51.70;;;;;;10440276;28;20076;-34
2022/08/26 14:44:48;;;;;;;3.72;1.70;;;28.30;53.10;;;;;;10426465;28;20573;-35
2022/08/26 14:49:51;;;;;;;2.45;1.30;;;27.80;53.20;;;;;;10407728;28;20695;-35
2022/08/26 14:54:53;;;;;;;2.13;0.90;;;28.50;52.70;;;;;;10377919;28;20147;-35
2022/08/26 14:59:56;;;;;;;6.32;1.20;;;28.50;52.50;;;;;;10393586;28;20149;-34
2022/08/26 15:04:59;;;;;;;2.28;0.85;;;28.40;50.60;;;;;;10393036;28;20052;-34
2022/08/26 15:10:01;;;;;;;2.40;1.20;;;28.70;52.40;;;;;;10392685;28;20136;-33
2022/08/26 15:15:03;;;;;;;1.73;0.88;;;28.70;52.20;;;;;;10382448;28;20050;-35
2022/08/26 15:20:08;;;;;;;1.90;0.77;;;29.00;51.80;;;;;;10388320;28;20049;-34
2022/08/26 15:25:11;;;;;;;3.30;1.00;;;28.80;52.10;;;;;;10401427;28;20080;-34
2022/08/26 15:30:15;;;;;;;2.13;1.08;;;29.00;51.50;;;;;;10402463;28;20551;-32
2022/08/26 15:35:18;;;;;;;3.95;1.08;;;28.30;52.60;;;;;;10394212;28;20077;-40
2022/08/26 15:40:20;;;;;;;1.92;0.60;;;29.00;51.30;;;;;;10395096;28;20100;-36
2022/08/26 15:45:22;;;;;;;4.70;1.13;;;29.00;51.50;;;;;;10394558;28;20061;-36
2022/08/26 15:50:25;;;;;;;3.47;1.20;;;29.20;51.20;;;;;;10398160;28;20124;-35
2022/08/26 15:55:27;;;;;;;2.53;1.00;;;29.30;51.00;;;;;;10402306;28;20449;-36
2022/08/26 16:00:30;;;;;;;2.15;0.90;;;29.10;51.50;;;;;;10400827;28;20076;-35
2022/08/26 16:05:33;;;;;;;7.50;1.30;;;29.60;50.20;;;;;;10396450;28;20399;-34
2022/08/26 16:10:36;;;;;;;5.25;1.58;;;29.40;48.40;;;;;;10394493;28;20140;-36
2022/08/26 16:15:39;;;;;;;3.67;1.73;;;28.90;50.30;;;;;;10415828;28;20123;-34
2022/08/26 16:20:49;;;;;;;3.25;1.70;;;29.20;49.80;;;;;;10391677;28;20058;-35
2022/08/26 16:25:52;;;;;;;1.65;0.93;;;29.60;50.50;;;;;;10381832;28;20124;-36
2022/08/26 16:30:54;;;;;;;1.98;1.30;;;29.70;50.50;;;;;;10386269;28;20054;-34
2022/08/26 16:35:57;;;;;;;3.17;1.00;;;29.80;50.80;;;;;;10399333;28;20052;-35
2022/08/26 16:40:59;;;;;;;1.08;0.98;;;29.70;50.80;;;;;;10397336;28;20042;-35
2022/08/26 16:46:01;;;;;;;3.28;1.40;;;30.00;50.40;;;;;;10413272;28;20076;-35
2022/08/26 16:51:05;;;;;;;6.38;1.45;;;29.90;50.60;;;;;;10405021;28;20430;-33
2022/08/26 16:56:11;;;;;;;4.30;1.67;;;29.70;50.90;;;;;;10400368;28;20442;-35
2022/08/26 17:01:13;;;;;;;4.53;1.55;;;29.90;50.40;;;;;;10409055;28;20078;-36
2022/08/26 17:06:17;;;;;;;2.33;1.33;;;29.90;50.60;;;;;;10399356;28;20127;-42
2022/08/26 17:11:18;;;;;;;3.35;1.05;;;29.80;50.00;;;;;;10403429;28;20532;-36
2022/08/26 17:16:21;;;;;;;2.22;1.30;;;29.70;50.20;;;;;;10409869;28;20069;-37
2022/08/26 17:21:24;;;;;;;3.00;1.20;;;29.50;50.20;;;;;;10401915;28;20088;-37
2022/08/26 17:26:27;;;;;;;6.20;1.77;;;29.90;49.70;;;;;;10422207;28;20523;-35
2022/08/26 17:31:31;;;;;;;3.03;1.48;;;29.40;49.50;;;;;;10404003;28;20077;-36
2022/08/26 17:36:34;;;;;;;3.45;1.40;;;29.80;49.40;;;;;;10391826;28;20041;-35
2022/08/26 17:41:36;;;;;;;2.53;1.20;;;29.80;49.10;;;;;;10411087;28;20124;-36
2022/08/26 17:46:39;;;;;;;2.83;1.15;;;29.90;49.10;;;;;;10437642;28;20089;-35
2022/08/26 17:51:43;;;;;;;2.92;1.48;;;30.00;49.10;;;;;;10452294;28;20077;-35
2022/08/26 17:56:45;;;;;;;4.15;1.30;;;29.80;49.20;;;;;;10452336;28;20079;-36
2022/08/26 18:01:47;;;;;;;1.73;0.93;;;30.00;49.10;;;;;;10457849;28;20496;-34
2022/08/26 18:06:50;;;;;;;3.10;1.30;;;30.00;48.90;;;;;;10447236;28;20107;-35
2022/08/26 18:11:52;;;;;;;4.90;1.27;;;30.00;48.90;;;;;;10438628;28;20151;-36
2022/08/26 18:16:54;;;;;;;3.88;1.30;;;30.00;48.90;;;;;;10439474;28;20593;-35
2022/08/26 18:21:57;;;;;;;3.38;1.77;;;30.00;48.80;;;;;;10441195;28;20040;-37
2022/08/26 18:26:59;;;;;;;3.00;1.10;;;29.90;48.80;;;;;;10449357;28;20098;-36
2022/08/26 18:32:01;;;;;;;1.75;1.10;;;29.90;48.80;;;;;;10451880;28;20568;-36
2022/08/26 18:37:04;;;;;;;3.42;1.27;;;29.80;48.70;;;;;;10442628;28;20455;-34
2022/08/26 18:42:07;;;;;;;2.22;1.00;;;29.90;48.80;;;;;;10438363;28;20047;-36
2022/08/26 18:47:09;;;;;;;1.63;0.95;;;29.80;48.80;;;;;;10414730;28;20049;-36
2022/08/26 18:52:12;;;;;;;2.40;1.20;;;29.80;48.60;;;;;;10420772;28;20065;-35
2022/08/26 18:57:14;;;;;;;3.00;1.35;;;29.70;48.70;;;;;;10432055;28;20060;-35
2022/08/26 19:02:16;;;;;;;2.05;1.08;;;29.70;48.70;;;;;;10450591;28;20069;-34
2022/08/26 19:07:20;;;;;;;4.15;1.50;;;29.70;48.70;;;;;;10448028;28;20711;-35
2022/08/26 19:12:22;;;;;;;3.20;1.08;;;29.60;48.70;;;;;;10442491;28;20049;-32
2022/08/26 19:17:23;;;;;;;5.40;0.90;;;29.60;48.70;;;;;;10442044;28;20253;-34
2022/08/26 19:22:27;;;;;;;5.82;1.50;;;29.50;48.70;;;;;;10443302;28;20154;-34
2022/08/26 19:27:29;;;;;;;3.75;1.10;;;29.50;48.60;;;;;;10435747;28;20045;-35
2022/08/26 19:32:30;;;;;;;4.00;1.17;;;29.40;48.60;;;;;;10434134;28;20053;-36
2022/08/26 19:37:34;;;;;;;3.22;1.30;;;29.40;48.50;;;;;;10437318;28;20049;-35
2022/08/26 19:42:36;;;;;;;5.65;1.33;;;29.30;48.60;;;;;;10441621;28;20106;-34
2022/08/26 19:47:39;;;;;;;3.50;1.08;;;29.30;48.50;;;;;;10435101;28;20076;-35
2022/08/26 19:52:43;;;;;;;3.40;1.17;;;29.30;48.60;;;;;;10439848;28;20130;-35
2022/08/26 19:57:45;;;;;;;3.75;1.20;;;29.20;48.70;;;;;;10445005;28;20084;-35
2022/08/26 20:02:47;;;;;;;2.22;1.13;;;29.20;48.70;;;;;;10426206;28;20128;-36
2022/08/26 20:07:52;;;;;;;3.22;1.38;;;29.20;48.90;;;;;;10447781;28;20050;-33
2022/08/26 20:12:55;;;;;;;3.17;1.08;;;29.10;48.80;;;;;;10443833;28;20041;-36
2022/08/26 20:17:57;;;;;;;1.35;0.90;;;29.10;48.90;;;;;;10441121;28;20046;-36
2022/08/26 20:23:00;;;;;;;3.90;0.80;;;29.10;49.00;;;;;;10455630;28;20379;-37
2022/08/26 20:28:02;;;;;;;2.83;1.20;;;29.00;49.00;;;;;;10456884;28;20551;-36
2022/08/26 20:33:04;;;;;;;1.95;0.90;;;29.00;49.10;;;;;;10446429;28;20574;-35
2022/08/26 20:38:09;;;;;;;2.40;1.58;;;28.90;49.20;;;;;;10452476;28;20127;-37
2022/08/26 20:43:11;;;;;;;1.83;0.85;;;28.90;49.20;;;;;;10450523;28;20174;-37
2022/08/26 20:48:12;;;;;;;2.63;1.10;;;28.90;49.20;;;;;;10412331;28;20045;-36
2022/08/26 20:53:15;;;;;;;3.40;1.40;;;28.80;49.20;;;;;;10389595;28;20052;-35
2022/08/26 20:58:18;;;;;;;4.03;1.30;;;28.80;49.30;;;;;;10403774;28;20471;-35
2022/08/26 21:03:19;;;;;;;1.40;0.80;;;28.80;49.30;;;;;;10425209;28;20104;-34
2022/08/26 21:08:22;;;;;;;1.75;0.75;;;28.70;50.00;;;;;;10405394;28;20092;-37
2022/08/26 21:13:24;;;;;;;1.38;0.80;;;28.70;49.40;;;;;;10403311;28;20045;-37
2022/08/26 21:18:26;;;;;;;2.65;0.90;;;28.60;49.40;;;;;;10404859;28;20069;-36
2022/08/26 21:23:29;;;;;;;2.42;1.08;;;28.60;49.40;;;;;;10420714;28;20131;-35
2022/08/26 21:28:31;;;;;;;1.55;0.88;;;28.50;49.40;;;;;;10421012;28;20509;-37
2022/08/26 21:33:34;;;;;;;2.72;1.27;;;28.50;49.50;;;;;;10415543;28;20076;-36
2022/08/26 21:38:37;;;;;;;1.85;0.77;;;28.50;49.50;;;;;;10422665;28;20133;-36
2022/08/26 21:43:40;;;;;;;2.42;1.00;;;28.40;49.50;;;;;;10403295;28;20129;-36
2022/08/26 21:48:43;;;;;;;2.80;1.00;;;28.40;49.50;;;;;;10438835;28;20049;-36
2022/08/26 21:53:47;;;;;;;3.03;0.98;;;28.40;49.50;;;;;;10482941;28;20536;-35
2022/08/26 21:58:49;;;;;;;2.40;0.90;;;28.30;49.50;;;;;;10480080;28;20420;-35
2022/08/26 22:03:52;;;;;;;2.60;1.00;;;28.30;49.50;;;;;;10487773;28;20051;-34
2022/08/26 22:08:56;;;;;;;2.55;1.10;;;28.20;49.50;;;;;;10491380;28;20429;-36
2022/08/26 22:13:58;;;;;;;4.47;1.23;;;28.20;49.60;;;;;;10476703;28;20056;-34
2022/08/26 22:18:59;;;;;;;1.80;0.90;;;28.20;49.70;;;;;;10482760;28;20053;-34
2022/08/26 22:24:04;;;;;;;2.05;0.90;;;28.10;49.60;;;;;;10484588;28;20135;-35
2022/08/26 22:29:07;;;;;;;2.90;1.10;;;28.10;49.70;;;;;;10487507;28;20040;-35
2022/08/26 22:34:13;;;;;;;2.13;0.90;;;28.00;49.70;;;;;;10485422;28;20055;-33
2022/08/26 22:39:19;;;;;;;1.58;0.70;;;28.00;50.10;;;;;;10478117;28;21257;-36
2022/08/26 22:44:21;;;;;;;2.30;0.85;;;28.00;49.80;;;;;;10484741;28;20297;-36
2022/08/26 22:49:24;;;;;;;3.78;0.93;;;28.00;50.40;;;;;;10492961;28;20044;-36
2022/08/26 22:54:27;;;;;;;2.22;0.85;;;28.00;49.90;;;;;;10477233;28;20051;-36
2022/08/26 22:59:29;;;;;;;0.88;0.80;;;27.90;49.80;;;;;;10485139;28;20068;-35
2022/08/26 23:04:31;;;;;;;2.33;0.98;;;27.90;49.90;;;;;;10485998;28;20049;-36
2022/08/26 23:09:34;;;;;;;1.98;1.33;;;27.90;50.00;;;;;;10483454;28;20124;-36
2022/08/26 23:14:38;;;;;;;2.78;1.13;;;27.80;50.00;;;;;;10484088;28;20130;-36
2022/08/26 23:19:40;;;;;;;2.05;0.90;;;27.80;50.00;;;;;;10472690;28;20412;-36
2022/08/26 23:24:44;;;;;;;1.77;1.02;;;27.70;50.00;;;;;;10489135;28;20076;-37
2022/08/26 23:29:46;;;;;;;1.67;1.08;;;27.70;50.10;;;;;;10463964;28;20524;-35
2022/08/26 23:34:57;;;;;;;1.63;0.90;;;27.70;50.10;;;;;;10474255;28;20045;-35
2022/08/26 23:40:02;;;;;;;;;;;27.70;50.10;;;;;;10467462;28;20132;-37
2022/08/26 23:45:05;;;;;;;3.17;0.88;;;27.60;50.10;;;;;;10465049;28;20332;-35
2022/08/26 23:50:08;;;;;;;1.58;1.10;;;27.60;50.20;;;;;;10469012;28;20531;-35
2022/08/26 23:55:12;;;;;;;2.78;1.30;;;27.60;50.20;;;;;;10478526;28;20611;-35
